createdAt,value
2023-01-10T00:09:06.120Z,93.34
2023-01-10T00:19:27.598Z,94.02
2023-01-10T00:29:52.143Z,93.57
2023-01-10T00:40:13.652Z,93.71
2023-01-10T00:50:35.070Z,92.65
2023-01-10T01:00:56.547Z,93.32
2023-01-10T01:11:17.952Z,93.33
2023-01-10T01:21:39.363Z,93.12
2023-01-10T01:32:00.702Z,93.39
2023-01-10T01:42:26.738Z,92.58
2023-01-10T01:52:49.039Z,92.75
2023-01-10T02:03:11.511Z,91.89
2023-01-10T02:13:33.622Z,91.96
2023-01-10T02:24:13.735Z,93.19
2023-01-10T02:34:53.990Z,93.15
2023-01-10T02:45:26.099Z,93.12
2023-01-10T02:55:47.456Z,92.30
2023-01-10T03:06:22.925Z,92.67
2023-01-10T03:16:47.853Z,91.89
2023-01-10T03:27:15.372Z,92.48
2023-01-10T03:37:40.970Z,92.18
2023-01-10T03:48:05.315Z,92.30
2023-01-10T03:58:28.401Z,92.24
2023-01-10T04:08:49.756Z,91.68
2023-01-10T04:19:11.216Z,92.71
2023-01-10T04:29:32.561Z,92.33
2023-01-10T04:39:53.929Z,93.39
2023-01-10T04:50:15.484Z,93.39
2023-01-10T05:00:36.855Z,92.74
2023-01-10T05:10:58.207Z,92.90
2023-01-10T05:21:19.630Z,92.12
2023-01-10T05:31:41.045Z,91.44
2023-01-10T05:42:02.489Z,91.66
2023-01-10T05:52:23.857Z,91.04
2023-01-10T06:02:45.425Z,91.41
2023-01-10T06:13:06.918Z,90.89
2023-01-10T06:23:30.239Z,91.22
2023-01-10T06:33:51.608Z,91.48
2023-01-10T06:44:13.321Z,91.71
2023-01-10T06:54:34.668Z,91.40
2023-01-10T07:04:56.023Z,92.48
2023-01-10T07:15:17.382Z,91.93
2023-01-10T07:25:38.747Z,91.86
2023-01-10T07:36:00.854Z,92.61
2023-01-10T07:46:22.381Z,92.49
2023-01-10T07:56:43.781Z,92.45
2023-01-10T08:07:05.337Z,93.24
2023-01-10T08:17:26.743Z,93.37
2023-01-10T08:27:48.124Z,92.79
2023-01-10T08:38:10.395Z,93.30
2023-01-10T08:48:31.951Z,93.99
2023-01-10T08:58:53.346Z,93.08
2023-01-10T09:09:14.784Z,93.05
2023-01-10T09:19:36.179Z,93.09
2023-01-10T09:29:57.613Z,92.74
2023-01-10T09:40:21.741Z,92.69
2023-01-10T09:51:10.028Z,92.96
2023-01-10T10:01:37.451Z,92.14
2023-01-10T10:12:11.221Z,91.24
2023-01-10T10:22:35.711Z,90.85
2023-01-10T10:33:03.706Z,90.27
2023-01-10T10:43:31.047Z,90.19
2023-01-10T10:53:53.698Z,89.72
2023-01-10T11:04:17.071Z,88.71
2023-01-10T11:14:41.413Z,88.18
2023-01-10T11:25:03.133Z,88.08
2023-01-10T11:35:27.708Z,87.53
2023-01-10T11:45:53.887Z,87.34
2023-01-10T11:56:23.338Z,88.02
2023-01-10T12:06:46.346Z,87.08
2023-01-10T12:17:11.273Z,87.16
2023-01-10T12:27:33.086Z,87.67
2023-01-10T12:37:59.018Z,86.74
2023-01-10T12:48:43.994Z,87.97
2023-01-10T12:59:11.506Z,87.81
2023-01-10T13:09:33.360Z,87.41
2023-01-10T13:20:27.197Z,87.14
2023-01-10T13:30:56.313Z,87.11
2023-01-10T13:41:36.429Z,86.99
2023-01-10T13:52:16.515Z,87.08
2023-01-10T14:02:42.417Z,87.44
2023-01-10T14:13:09.258Z,87.74
2023-01-10T14:23:50.506Z,86.96
2023-01-10T14:34:16.688Z,86.68
2023-01-10T14:44:58.367Z,86.67
2023-01-10T14:55:22.847Z,86.78
2023-01-10T15:05:50.030Z,86.41
2023-01-10T15:16:17.551Z,86.13
2023-01-10T15:26:39.082Z,86.72
2023-01-10T15:37:01.882Z,85.99
2023-01-10T15:47:44.546Z,86.28
2023-01-10T15:58:22.510Z,85.71
2023-01-10T16:08:47.792Z,85.51
2023-01-10T16:19:09.157Z,85.04
2023-01-10T16:29:30.539Z,85.10
2023-01-10T16:39:51.891Z,84.71
2023-01-10T16:50:13.329Z,84.84
2023-01-10T17:00:34.956Z,84.21
2023-01-10T17:11:06.582Z,86.11
2023-01-10T17:21:28.180Z,87.69
2023-01-10T17:31:51.450Z,88.95
2023-01-10T17:42:12.920Z,90.09
2023-01-10T17:52:34.357Z,89.22
2023-01-10T18:02:55.806Z,90.12
2023-01-10T18:13:18.396Z,90.15
2023-01-10T18:23:39.803Z,89.75
2023-01-10T18:34:01.186Z,89.12
2023-01-10T18:44:22.814Z,88.97
2023-01-10T18:54:44.190Z,89.83
2023-01-10T19:05:09.344Z,89.98
2023-01-10T19:15:30.710Z,91.53
2023-01-10T19:25:55.529Z,92.47
2023-01-10T19:36:18.136Z,92.65
2023-01-10T19:46:40.671Z,93.28
2023-01-10T19:57:02.177Z,92.90
2023-01-10T20:07:23.534Z,94.98
2023-01-10T20:17:45.142Z,94.86
2023-01-10T20:28:06.516Z,96.32
2023-01-10T20:38:28.635Z,96.44
2023-01-10T20:48:50.768Z,97.02
2023-01-10T20:59:12.129Z,98.23
2023-01-10T21:09:33.483Z,96.45
2023-01-10T21:19:54.879Z,97.25
2023-01-10T21:30:18.689Z,97.44
2023-01-10T21:40:40.052Z,97.50
2023-01-10T21:51:01.480Z,98.30
2023-01-10T22:01:22.878Z,96.38
2023-01-10T22:11:44.241Z,97.26
2023-01-10T22:22:06.080Z,96.92
2023-01-10T22:32:27.515Z,96.10
2023-01-10T22:42:52.165Z,96.91
2023-01-10T22:53:13.598Z,96.63
2023-01-10T23:03:35.320Z,96.28
2023-01-10T23:13:56.723Z,96.96
2023-01-10T23:24:18.209Z,97.13
2023-01-10T23:34:39.564Z,97.37
2023-01-10T23:45:00.956Z,97.67
2023-01-10T23:55:22.338Z,97.72
